首页
METAR-TAF:

METAR-TAF

机场 :

纳拉布赖, 澳大利亚

纬度: 30-19-09S, 经度: 149-49-38E, 海拔: 240米

当前天气观测

该预报发布于45分钟前的01:00 UTC
风速19节,风向
温度 21°C
湿度 49%
气压 1021 hPa
能见度10公里或以上

METAR: YNBR 310100Z AUTO 36019KT 9999 // NCD 21/10 Q1021

时间: 11:45 (01:45 UTC)


TAF: 丢失

超过4000个机场的气象观测和天气预报(METAR&TAF报告)。

可查询的气象台以黄色和红色小点在地图上表示。

将鼠标移到小点上方,可查看气象台名称。

然后点击查看天气观测和预报。

如需切换地图:点击带黑十字的绿色按钮放大地图;点击带横线的绿色按钮缩小地图;或者点击绿色箭头查看邻近地区的地图。


METAR-TAF: